sensor_id;sensor_type;location;lat;lon;timestamp;temperature;humidity
67868;SHT31;54672;46.096;14.470;2022-09-29T00:01:41;12.46;99.99
67868;SHT31;54672;46.096;14.470;2022-09-29T00:04:06;12.45;99.99
67868;SHT31;54672;46.096;14.470;2022-09-29T00:06:32;12.48;99.99
67868;SHT31;54672;46.096;14.470;2022-09-29T00:08:57;12.50;99.99
67868;SHT31;54672;46.096;14.470;2022-09-29T00:11:23;12.53;99.99
67868;SHT31;54672;46.096;14.470;2022-09-29T00:13:49;12.52;99.99
67868;SHT31;54672;46.096;14.470;2022-09-29T00:16:15;12.55;99.99
67868;SHT31;54672;46.096;14.470;2022-09-29T00:18:40;12.55;99.99
67868;SHT31;54672;46.096;14.470;2022-09-29T00:21:12;12.55;99.99
67868;SHT31;54672;46.096;14.470;2022-09-29T00:23:38;12.52;99.99
67868;SHT31;54672;46.096;14.470;2022-09-29T00:26:08;12.52;99.99
67868;SHT31;54672;46.096;14.470;2022-09-29T00:28:36;12.59;99.99
67868;SHT31;54672;46.096;14.470;2022-09-29T00:31:02;12.56;99.99
67868;SHT31;54672;46.096;14.470;2022-09-29T00:33:29;12.53;99.99
67868;SHT31;54672;46.096;14.470;2022-09-29T00:36:00;12.55;99.99
67868;SHT31;54672;46.096;14.470;2022-09-29T00:38:27;12.56;99.99
67868;SHT31;54672;46.096;14.470;2022-09-29T00:40:53;12.57;99.99
67868;SHT31;54672;46.096;14.470;2022-09-29T00:43:24;12.60;99.99
67868;SHT31;54672;46.096;14.470;2022-09-29T00:45:52;12.63;99.99
67868;SHT31;54672;46.096;14.470;2022-09-29T00:48:30;12.46;99.99
67868;SHT31;54672;46.096;14.470;2022-09-29T00:50:56;12.44;99.99
67868;SHT31;54672;46.096;14.470;2022-09-29T00:53:22;12.42;99.99
67868;SHT31;54672;46.096;14.470;2022-09-29T01:00:52;12.35;99.99
67868;SHT31;54672;46.096;14.470;2022-09-29T01:03:20;12.35;99.99
67868;SHT31;54672;46.096;14.470;2022-09-29T01:05:53;12.41;99.99
67868;SHT31;54672;46.096;14.470;2022-09-29T01:08:21;12.45;99.99
67868;SHT31;54672;46.096;14.470;2022-09-29T01:10:48;12.45;99.99
67868;SHT31;54672;46.096;14.470;2022-09-29T01:13:14;12.38;99.99
67868;SHT31;54672;46.096;14.470;2022-09-29T01:15:40;12.32;99.99
67868;SHT31;54672;46.096;14.470;2022-09-29T01:18:05;12.32;99.99
67868;SHT31;54672;46.096;14.470;2022-09-29T01:20:34;12.17;99.99
67868;SHT31;54672;46.096;14.470;2022-09-29T01:23:39;12.11;99.99
67868;SHT31;54672;46.096;14.470;2022-09-29T01:31:46;12.05;99.99
67868;SHT31;54672;46.096;14.470;2022-09-29T01:36:56;12.17;99.99
67868;SHT31;54672;46.096;14.470;2022-09-29T01:39:33;12.21;99.99
67868;SHT31;54672;46.096;14.470;2022-09-29T01:42:19;12.25;99.99
67868;SHT31;54672;46.096;14.470;2022-09-29T01:48:00;12.25;99.99
67868;SHT31;54672;46.096;14.470;2022-09-29T01:50:38;12.28;99.99
67868;SHT31;54672;46.096;14.470;2022-09-29T01:53:10;12.32;99.99
67868;SHT31;54672;46.096;14.470;2022-09-29T01:55:42;12.35;99.99
67868;SHT31;54672;46.096;14.470;2022-09-29T01:58:15;12.39;99.99
67868;SHT31;54672;46.096;14.470;2022-09-29T02:00:51;12.42;99.99
67868;SHT31;54672;46.096;14.470;2022-09-29T02:03:29;12.46;99.99
67868;SHT31;54672;46.096;14.470;2022-09-29T02:05:59;12.46;99.99
67868;SHT31;54672;46.096;14.470;2022-09-29T02:08:30;12.52;99.99
67868;SHT31;54672;46.096;14.470;2022-09-29T02:11:01;12.57;99.99
67868;SHT31;54672;46.096;14.470;2022-09-29T02:13:31;12.56;99.99
67868;SHT31;54672;46.096;14.470;2022-09-29T02:15:58;12.52;99.99
67868;SHT31;54672;46.096;14.470;2022-09-29T02:18:30;12.41;99.99
67868;SHT31;54672;46.096;14.470;2022-09-29T02:20:56;12.38;99.99
67868;SHT31;54672;46.096;14.470;2022-09-29T02:23:22;12.39;99.99
67868;SHT31;54672;46.096;14.470;2022-09-29T02:25:49;12.38;99.99
67868;SHT31;54672;46.096;14.470;2022-09-29T02:28:15;12.38;99.99
67868;SHT31;54672;46.096;14.470;2022-09-29T02:30:41;12.41;99.99
67868;SHT31;54672;46.096;14.470;2022-09-29T02:33:20;12.44;99.99
67868;SHT31;54672;46.096;14.470;2022-09-29T02:38:50;12.45;99.99
67868;SHT31;54672;46.096;14.470;2022-09-29T02:46:49;12.48;99.99
67868;SHT31;54672;46.096;14.470;2022-09-29T03:02:40;12.62;99.99
67868;SHT31;54672;46.096;14.470;2022-09-29T03:05:11;12.65;99.99
67868;SHT31;54672;46.096;14.470;2022-09-29T03:07:38;12.63;99.99
67868;SHT31;54672;46.096;14.470;2022-09-29T03:10:05;12.66;99.99
67868;SHT31;54672;46.096;14.470;2022-09-29T03:12:32;12.62;99.99
67868;SHT31;54672;46.096;14.470;2022-09-29T03:14:58;12.65;99.99
67868;SHT31;54672;46.096;14.470;2022-09-29T03:17:23;12.52;99.99
67868;SHT31;54672;46.096;14.470;2022-09-29T03:19:48;12.52;99.99
67868;SHT31;54672;46.096;14.470;2022-09-29T03:22:14;12.55;99.99
67868;SHT31;54672;46.096;14.470;2022-09-29T03:24:39;12.55;99.99
67868;SHT31;54672;46.096;14.470;2022-09-29T03:27:06;12.59;99.99
67868;SHT31;54672;46.096;14.470;2022-09-29T03:29:31;12.60;99.99
67868;SHT31;54672;46.096;14.470;2022-09-29T03:31:58;12.63;99.99
67868;SHT31;54672;46.096;14.470;2022-09-29T03:34:24;12.63;99.99
67868;SHT31;54672;46.096;14.470;2022-09-29T03:36:50;12.60;99.99
67868;SHT31;54672;46.096;14.470;2022-09-29T03:39:15;12.57;99.99
67868;SHT31;54672;46.096;14.470;2022-09-29T03:41:40;12.63;99.99
67868;SHT31;54672;46.096;14.470;2022-09-29T03:44:06;12.65;99.99
67868;SHT31;54672;46.096;14.470;2022-09-29T03:46:31;12.53;99.99
67868;SHT31;54672;46.096;14.470;2022-09-29T03:48:57;12.45;99.99
67868;SHT31;54672;46.096;14.470;2022-09-29T03:51:22;12.50;99.99
67868;SHT31;54672;46.096;14.470;2022-09-29T03:53:47;12.48;99.99
67868;SHT31;54672;46.096;14.470;2022-09-29T03:56:13;12.42;99.99
67868;SHT31;54672;46.096;14.470;2022-09-29T03:58:39;12.35;99.99
67868;SHT31;54672;46.096;14.470;2022-09-29T04:01:04;12.32;99.99
67868;SHT31;54672;46.096;14.470;2022-09-29T04:03:30;12.32;99.99
67868;SHT31;54672;46.096;14.470;2022-09-29T04:05:55;12.26;99.99
67868;SHT31;54672;46.096;14.470;2022-09-29T04:08:21;12.22;99.99
67868;SHT31;54672;46.096;14.470;2022-09-29T04:10:46;12.24;99.99
67868;SHT31;54672;46.096;14.470;2022-09-29T04:13:12;12.26;99.99
67868;SHT31;54672;46.096;14.470;2022-09-29T04:15:38;12.35;99.99
67868;SHT31;54672;46.096;14.470;2022-09-29T04:18:04;12.36;99.99
67868;SHT31;54672;46.096;14.470;2022-09-29T04:20:30;12.35;99.99
67868;SHT31;54672;46.096;14.470;2022-09-29T04:22:55;12.35;99.99
67868;SHT31;54672;46.096;14.470;2022-09-29T04:25:21;12.42;99.99
67868;SHT31;54672;46.096;14.470;2022-09-29T04:27:46;12.42;99.99
67868;SHT31;54672;46.096;14.470;2022-09-29T04:30:12;12.48;99.99
67868;SHT31;54672;46.096;14.470;2022-09-29T04:32:38;12.49;99.99
67868;SHT31;54672;46.096;14.470;2022-09-29T04:35:04;12.35;99.99
67868;SHT31;54672;46.096;14.470;2022-09-29T04:37:29;12.35;99.99
67868;SHT31;54672;46.096;14.470;2022-09-29T04:39:55;12.38;99.99
67868;SHT31;54672;46.096;14.470;2022-09-29T04:42:21;12.35;99.99
67868;SHT31;54672;46.096;14.470;2022-09-29T04:44:46;12.36;99.99
67868;SHT31;54672;46.096;14.470;2022-09-29T04:47:12;12.41;99.99
67868;SHT31;54672;46.096;14.470;2022-09-29T04:49:37;12.38;99.99
67868;SHT31;54672;46.096;14.470;2022-09-29T04:52:03;12.38;99.99
67868;SHT31;54672;46.096;14.470;2022-09-29T04:54:33;12.38;99.99
67868;SHT31;54672;46.096;14.470;2022-09-29T04:56:59;12.44;99.99
67868;SHT31;54672;46.096;14.470;2022-09-29T04:59:25;12.44;99.99
67868;SHT31;54672;46.096;14.470;2022-09-29T05:01:51;12.44;99.99
67868;SHT31;54672;46.096;14.470;2022-09-29T05:04:16;12.46;99.99
67868;SHT31;54672;46.096;14.470;2022-09-29T05:06:41;12.48;99.99
67868;SHT31;54672;46.096;14.470;2022-09-29T05:09:07;12.48;99.99
67868;SHT31;54672;46.096;14.470;2022-09-29T05:11:33;12.48;99.99
67868;SHT31;54672;46.096;14.470;2022-09-29T05:13:58;12.48;99.99
67868;SHT31;54672;46.096;14.470;2022-09-29T05:16:24;12.50;99.99
67868;SHT31;54672;46.096;14.470;2022-09-29T05:18:50;12.55;99.99
67868;SHT31;54672;46.096;14.470;2022-09-29T05:21:15;12.56;99.99
67868;SHT31;54672;46.096;14.470;2022-09-29T05:23:41;12.55;99.99
67868;SHT31;54672;46.096;14.470;2022-09-29T05:26:07;12.55;99.99
67868;SHT31;54672;46.096;14.470;2022-09-29T05:28:34;12.59;99.99
67868;SHT31;54672;46.096;14.470;2022-09-29T05:31:05;12.55;99.99
67868;SHT31;54672;46.096;14.470;2022-09-29T05:33:32;12.56;99.99
67868;SHT31;54672;46.096;14.470;2022-09-29T05:35:57;12.55;99.99
67868;SHT31;54672;46.096;14.470;2022-09-29T05:38:23;12.60;99.99
67868;SHT31;54672;46.096;14.470;2022-09-29T05:40:50;12.60;99.99
67868;SHT31;54672;46.096;14.470;2022-09-29T05:43:15;12.57;99.99
67868;SHT31;54672;46.096;14.470;2022-09-29T05:45:41;12.62;99.99
67868;SHT31;54672;46.096;14.470;2022-09-29T05:48:07;12.65;99.99
67868;SHT31;54672;46.096;14.470;2022-09-29T05:50:33;12.53;99.99
67868;SHT31;54672;46.096;14.470;2022-09-29T05:53:06;12.46;99.99
67868;SHT31;54672;46.096;14.470;2022-09-29T05:55:31;12.42;99.99
67868;SHT31;54672;46.096;14.470;2022-09-29T05:57:56;12.38;99.99
67868;SHT31;54672;46.096;14.470;2022-09-29T06:00:22;12.36;99.99
67868;SHT31;54672;46.096;14.470;2022-09-29T06:02:47;12.34;99.99
67868;SHT31;54672;46.096;14.470;2022-09-29T06:05:12;12.35;99.99
67868;SHT31;54672;46.096;14.470;2022-09-29T06:07:38;12.41;99.99
67868;SHT31;54672;46.096;14.470;2022-09-29T06:10:03;12.45;99.99
67868;SHT31;54672;46.096;14.470;2022-09-29T06:12:34;12.49;99.99
67868;SHT31;54672;46.096;14.470;2022-09-29T06:14:59;12.53;99.99
67868;SHT31;54672;46.096;14.470;2022-09-29T06:17:25;12.41;99.99
67868;SHT31;54672;46.096;14.470;2022-09-29T06:19:50;12.39;99.99
67868;SHT31;54672;46.096;14.470;2022-09-29T06:22:16;12.35;99.99
67868;SHT31;54672;46.096;14.470;2022-09-29T06:24:43;12.32;99.99
67868;SHT31;54672;46.096;14.470;2022-09-29T06:27:08;12.34;99.99
67868;SHT31;54672;46.096;14.470;2022-09-29T06:29:35;12.34;99.99
67868;SHT31;54672;46.096;14.470;2022-09-29T06:32:01;12.31;99.99
67868;SHT31;54672;46.096;14.470;2022-09-29T06:34:26;12.28;99.99
67868;SHT31;54672;46.096;14.470;2022-09-29T06:36:52;12.32;99.99
67868;SHT31;54672;46.096;14.470;2022-09-29T06:39:35;12.32;99.99
67868;SHT31;54672;46.096;14.470;2022-09-29T06:42:01;12.25;99.99
67868;SHT31;54672;46.096;14.470;2022-09-29T06:44:27;12.22;99.99
67868;SHT31;54672;46.096;14.470;2022-09-29T06:46:55;12.24;99.99
67868;SHT31;54672;46.096;14.470;2022-09-29T06:49:20;12.32;99.99
67868;SHT31;54672;46.096;14.470;2022-09-29T06:51:46;12.35;99.99
67868;SHT31;54672;46.096;14.470;2022-09-29T06:54:13;12.41;99.99
67868;SHT31;54672;46.096;14.470;2022-09-29T06:56:39;12.42;99.99
67868;SHT31;54672;46.096;14.470;2022-09-29T06:59:05;12.49;99.99
67868;SHT31;54672;46.096;14.470;2022-09-29T07:01:30;12.45;99.99
67868;SHT31;54672;46.096;14.470;2022-09-29T07:03:56;12.41;99.99
67868;SHT31;54672;46.096;14.470;2022-09-29T07:06:21;12.39;99.99
67868;SHT31;54672;46.096;14.470;2022-09-29T07:08:47;12.46;99.99
67868;SHT31;54672;46.096;14.470;2022-09-29T07:11:12;12.41;99.99
67868;SHT31;54672;46.096;14.470;2022-09-29T07:13:39;12.36;99.99
67868;SHT31;54672;46.096;14.470;2022-09-29T07:16:06;12.36;99.99
67868;SHT31;54672;46.096;14.470;2022-09-29T07:18:33;12.31;99.99
67868;SHT31;54672;46.096;14.470;2022-09-29T07:20:59;12.24;99.99
67868;SHT31;54672;46.096;14.470;2022-09-29T07:23:25;12.31;99.99
67868;SHT31;54672;46.096;14.470;2022-09-29T07:25:51;12.36;99.99
67868;SHT31;54672;46.096;14.470;2022-09-29T07:28:16;12.42;99.99
67868;SHT31;54672;46.096;14.470;2022-09-29T07:30:42;12.34;99.99
67868;SHT31;54672;46.096;14.470;2022-09-29T07:33:07;12.32;99.99
67868;SHT31;54672;46.096;14.470;2022-09-29T07:35:32;12.29;99.99
67868;SHT31;54672;46.096;14.470;2022-09-29T07:37:58;12.34;99.99
67868;SHT31;54672;46.096;14.470;2022-09-29T07:40:24;12.32;99.99
67868;SHT31;54672;46.096;14.470;2022-09-29T07:42:52;12.32;99.99
67868;SHT31;54672;46.096;14.470;2022-09-29T07:45:19;12.35;99.99
67868;SHT31;54672;46.096;14.470;2022-09-29T07:47:45;12.41;99.99
67868;SHT31;54672;46.096;14.470;2022-09-29T07:50:10;12.36;99.99
67868;SHT31;54672;46.096;14.470;2022-09-29T07:52:36;12.41;99.99
67868;SHT31;54672;46.096;14.470;2022-09-29T07:55:02;12.44;99.99
67868;SHT31;54672;46.096;14.470;2022-09-29T07:57:27;12.42;99.99
67868;SHT31;54672;46.096;14.470;2022-09-29T07:59:53;12.49;99.99
67868;SHT31;54672;46.096;14.470;2022-09-29T08:02:19;12.62;99.99
67868;SHT31;54672;46.096;14.470;2022-09-29T08:04:45;12.69;99.99
67868;SHT31;54672;46.096;14.470;2022-09-29T08:07:10;12.72;99.99
67868;SHT31;54672;46.096;14.470;2022-09-29T08:09:35;12.62;99.99
67868;SHT31;54672;46.096;14.470;2022-09-29T08:12:01;12.63;99.99
67868;SHT31;54672;46.096;14.470;2022-09-29T08:14:27;12.72;99.99
67868;SHT31;54672;46.096;14.470;2022-09-29T08:16:52;12.84;99.99
67868;SHT31;54672;46.096;14.470;2022-09-29T08:19:18;12.84;99.99
67868;SHT31;54672;46.096;14.470;2022-09-29T08:21:43;12.90;99.99
67868;SHT31;54672;46.096;14.470;2022-09-29T08:24:12;12.99;99.99
67868;SHT31;54672;46.096;14.470;2022-09-29T08:26:38;13.02;99.99
67868;SHT31;54672;46.096;14.470;2022-09-29T08:29:05;13.04;99.99
67868;SHT31;54672;46.096;14.470;2022-09-29T08:31:31;13.06;99.99
67868;SHT31;54672;46.096;14.470;2022-09-29T08:33:57;13.03;99.99
67868;SHT31;54672;46.096;14.470;2022-09-29T08:36:26;13.00;99.99
67868;SHT31;54672;46.096;14.470;2022-09-29T08:38:53;12.90;99.99
67868;SHT31;54672;46.096;14.470;2022-09-29T08:44:13;13.07;99.99
67868;SHT31;54672;46.096;14.470;2022-09-29T08:46:47;13.11;99.87
67868;SHT31;54672;46.096;14.470;2022-09-29T08:49:28;13.14;99.99
67868;SHT31;54672;46.096;14.470;2022-09-29T08:51:57;13.15;99.99
67868;SHT31;54672;46.096;14.470;2022-09-29T08:54:34;13.13;99.64
67868;SHT31;54672;46.096;14.470;2022-09-29T08:57:00;13.14;99.31
67868;SHT31;54672;46.096;14.470;2022-09-29T08:59:27;13.06;99.42
67868;SHT31;54672;46.096;14.470;2022-09-29T09:02:06;13.06;99.76
67868;SHT31;54672;46.096;14.470;2022-09-29T09:21:48;12.84;99.99
67868;SHT31;54672;46.096;14.470;2022-09-29T09:24:22;12.84;99.99
67868;SHT31;54672;46.096;14.470;2022-09-29T09:26:50;12.82;99.99
67868;SHT31;54672;46.096;14.470;2022-09-29T09:29:38;12.79;99.99
67868;SHT31;54672;46.096;14.470;2022-09-29T09:32:14;12.73;99.99
67868;SHT31;54672;46.096;14.470;2022-09-29T09:34:48;12.75;99.99
67868;SHT31;54672;46.096;14.470;2022-09-29T09:37:28;12.69;99.99
67868;SHT31;54672;46.096;14.470;2022-09-29T09:39:57;12.77;99.99
67868;SHT31;54672;46.096;14.470;2022-09-29T09:42:29;12.83;99.99
67868;SHT31;54672;46.096;14.470;2022-09-29T09:45:05;12.93;99.99
67868;SHT31;54672;46.096;14.470;2022-09-29T09:47:50;12.93;99.99
67868;SHT31;54672;46.096;14.470;2022-09-29T09:50:19;12.94;99.99
67868;SHT31;54672;46.096;14.470;2022-09-29T09:52:51;12.89;99.99
67868;SHT31;54672;46.096;14.470;2022-09-29T09:55:19;12.82;99.94
67868;SHT31;54672;46.096;14.470;2022-09-29T10:00:46;12.65;99.99
67868;SHT31;54672;46.096;14.470;2022-09-29T10:03:12;12.63;99.99
67868;SHT31;54672;46.096;14.470;2022-09-29T10:05:43;12.52;99.87
67868;SHT31;54672;46.096;14.470;2022-09-29T10:08:16;12.39;99.95
67868;SHT31;54672;46.096;14.470;2022-09-29T10:10:44;12.31;99.99
67868;SHT31;54672;46.096;14.470;2022-09-29T10:13:13;12.29;99.99
67868;SHT31;54672;46.096;14.470;2022-09-29T10:15:48;12.24;99.79
67868;SHT31;54672;46.096;14.470;2022-09-29T10:18:21;12.26;99.65
67868;SHT31;54672;46.096;14.470;2022-09-29T10:20:47;12.29;99.37
67868;SHT31;54672;46.096;14.470;2022-09-29T10:23:30;12.49;99.60
67868;SHT31;54672;46.096;14.470;2022-09-29T10:26:13;12.32;98.78
67868;SHT31;54672;46.096;14.470;2022-09-29T10:28:49;12.45;98.78
67868;SHT31;54672;46.096;14.470;2022-09-29T10:31:18;12.31;98.04
67868;SHT31;54672;46.096;14.470;2022-09-29T10:33:51;12.22;97.92
67868;SHT31;54672;46.096;14.470;2022-09-29T10:36:16;12.11;98.57
67868;SHT31;54672;46.096;14.470;2022-09-29T10:38:49;11.95;98.28
67868;SHT31;54672;46.096;14.470;2022-09-29T10:41:15;11.90;98.65
67868;SHT31;54672;46.096;14.470;2022-09-29T10:43:44;11.81;98.85
67868;SHT31;54672;46.096;14.470;2022-09-29T10:49:20;11.66;99.65
67868;SHT31;54672;46.096;14.470;2022-09-29T10:52:14;11.67;99.11
67868;SHT31;54672;46.096;14.470;2022-09-29T10:54:53;11.67;98.98
67868;SHT31;54672;46.096;14.470;2022-09-29T10:57:24;11.71;99.22
67868;SHT31;54672;46.096;14.470;2022-09-29T10:59:51;11.67;99.06
67868;SHT31;54672;46.096;14.470;2022-09-29T11:02:34;11.62;99.26
67868;SHT31;54672;46.096;14.470;2022-09-29T11:05:18;11.60;99.41
67868;SHT31;54672;46.096;14.470;2022-09-29T11:07:46;11.53;99.49
67868;SHT31;54672;46.096;14.470;2022-09-29T11:12:52;11.53;99.74
67868;SHT31;54672;46.096;14.470;2022-09-29T11:15:24;11.46;99.31
67868;SHT31;54672;46.096;14.470;2022-09-29T11:17:51;11.46;99.00
67868;SHT31;54672;46.096;14.470;2022-09-29T11:20:16;11.47;99.17
67868;SHT31;54672;46.096;14.470;2022-09-29T11:29:03;11.35;98.83
67868;SHT31;54672;46.096;14.470;2022-09-29T11:31:35;11.30;98.83
67868;SHT31;54672;46.096;14.470;2022-09-29T11:34:30;11.22;99.15
67868;SHT31;54672;46.096;14.470;2022-09-29T11:45:03;10.99;99.54
67868;SHT31;54672;46.096;14.470;2022-09-29T11:50:40;10.89;99.54
67868;SHT31;54672;46.096;14.470;2022-09-29T11:53:14;10.85;99.62
67868;SHT31;54672;46.096;14.470;2022-09-29T11:55:56;10.91;99.99
67868;SHT31;54672;46.096;14.470;2022-09-29T11:58:34;10.86;99.99
67868;SHT31;54672;46.096;14.470;2022-09-29T12:09:41;10.98;99.99
67868;SHT31;54672;46.096;14.470;2022-09-29T12:15:18;10.98;99.75
67868;SHT31;54672;46.096;14.470;2022-09-29T12:17:51;10.89;99.11
67868;SHT31;54672;46.096;14.470;2022-09-29T12:20:21;10.82;98.81
67868;SHT31;54672;46.096;14.470;2022-09-29T12:22:49;10.75;98.81
67868;SHT31;54672;46.096;14.470;2022-09-29T12:25:19;10.79;99.74
67868;SHT31;54672;46.096;14.470;2022-09-29T12:27:50;10.85;99.99
67868;SHT31;54672;46.096;14.470;2022-09-29T12:30:57;10.91;99.99
67868;SHT31;54672;46.096;14.470;2022-09-29T12:33:31;10.69;99.21
67868;SHT31;54672;46.096;14.470;2022-09-29T12:38:38;10.84;99.66
67868;SHT31;54672;46.096;14.470;2022-09-29T12:44:20;10.81;99.31
67868;SHT31;54672;46.096;14.470;2022-09-29T12:47:07;10.79;98.98
67868;SHT31;54672;46.096;14.470;2022-09-29T12:49:57;10.81;99.99
67868;SHT31;54672;46.096;14.470;2022-09-29T12:52:30;10.86;99.93
67868;SHT31;54672;46.096;14.470;2022-09-29T12:55:01;10.79;99.78
67868;SHT31;54672;46.096;14.470;2022-09-29T12:57:34;10.71;99.99
67868;SHT31;54672;46.096;14.470;2022-09-29T13:02:59;10.82;99.93
67868;SHT31;54672;46.096;14.470;2022-09-29T13:22:05;10.74;99.84
67868;SHT31;54672;46.096;14.470;2022-09-29T13:30:20;10.78;99.99
67868;SHT31;54672;46.096;14.470;2022-09-29T13:35:22;10.96;99.94
67868;SHT31;54672;46.096;14.470;2022-09-29T13:38:06;10.94;99.59
67868;SHT31;54672;46.096;14.470;2022-09-29T13:40:32;11.01;99.49
67868;SHT31;54672;46.096;14.470;2022-09-29T13:42:58;11.02;98.77
67868;SHT31;54672;46.096;14.470;2022-09-29T13:47:54;10.88;99.99
67868;SHT31;54672;46.096;14.470;2022-09-29T13:58:25;10.71;99.99
67868;SHT31;54672;46.096;14.470;2022-09-29T14:00:52;10.81;99.99
67868;SHT31;54672;46.096;14.470;2022-09-29T14:14:03;10.74;99.99
67868;SHT31;54672;46.096;14.470;2022-09-29T14:22:04;10.58;99.99
67868;SHT31;54672;46.096;14.470;2022-09-29T14:27:29;10.58;99.99
67868;SHT31;54672;46.096;14.470;2022-09-29T14:32:46;10.60;99.99
67868;SHT31;54672;46.096;14.470;2022-09-29T14:37:59;10.68;99.99
67868;SHT31;54672;46.096;14.470;2022-09-29T14:40:25;10.71;99.99
67868;SHT31;54672;46.096;14.470;2022-09-29T14:45:30;10.74;99.99
67868;SHT31;54672;46.096;14.470;2022-09-29T14:48:26;10.78;99.99
67868;SHT31;54672;46.096;14.470;2022-09-29T14:51:39;10.81;99.99
67868;SHT31;54672;46.096;14.470;2022-09-29T14:57:42;10.86;99.99
67868;SHT31;54672;46.096;14.470;2022-09-29T15:02:44;10.98;99.99
67868;SHT31;54672;46.096;14.470;2022-09-29T15:05:31;10.86;99.99
67868;SHT31;54672;46.096;14.470;2022-09-29T15:07:59;10.82;99.99
67868;SHT31;54672;46.096;14.470;2022-09-29T15:10:30;10.74;99.92
67868;SHT31;54672;46.096;14.470;2022-09-29T15:15:40;10.69;99.99
67868;SHT31;54672;46.096;14.470;2022-09-29T15:20:49;10.75;99.99
67868;SHT31;54672;46.096;14.470;2022-09-29T15:26:13;10.75;99.99
67868;SHT31;54672;46.096;14.470;2022-09-29T15:28:40;10.78;99.99
67868;SHT31;54672;46.096;14.470;2022-09-29T15:31:13;10.86;99.99
67868;SHT31;54672;46.096;14.470;2022-09-29T15:33:42;10.81;99.99
67868;SHT31;54672;46.096;14.470;2022-09-29T15:36:16;10.71;99.99
67868;SHT31;54672;46.096;14.470;2022-09-29T15:38:43;10.69;99.99
67868;SHT31;54672;46.096;14.470;2022-09-29T15:43:56;10.64;99.99
67868;SHT31;54672;46.096;14.470;2022-09-29T15:46:45;10.61;99.99
67868;SHT31;54672;46.096;14.470;2022-09-29T15:49:16;10.57;99.99
67868;SHT31;54672;46.096;14.470;2022-09-29T15:52:05;10.55;99.99
67868;SHT31;54672;46.096;14.470;2022-09-29T15:54:32;10.53;99.99
67868;SHT31;54672;46.096;14.470;2022-09-29T15:56:59;10.58;99.99
67868;SHT31;54672;46.096;14.470;2022-09-29T15:59:51;10.54;99.99
67868;SHT31;54672;46.096;14.470;2022-09-29T16:02:25;10.54;99.99
67868;SHT31;54672;46.096;14.470;2022-09-29T16:04:59;10.61;99.99
67868;SHT31;54672;46.096;14.470;2022-09-29T16:07:28;10.63;99.99
67868;SHT31;54672;46.096;14.470;2022-09-29T16:10:10;10.64;99.99
67868;SHT31;54672;46.096;14.470;2022-09-29T16:12:39;10.58;99.99
67868;SHT31;54672;46.096;14.470;2022-09-29T16:15:24;10.55;99.99
67868;SHT31;54672;46.096;14.470;2022-09-29T16:17:51;10.51;99.99
67868;SHT31;54672;46.096;14.470;2022-09-29T16:20:23;10.41;99.99
67868;SHT31;54672;46.096;14.470;2022-09-29T16:22:50;10.44;99.99
67868;SHT31;54672;46.096;14.470;2022-09-29T16:25:27;10.41;99.99
67868;SHT31;54672;46.096;14.470;2022-09-29T16:27:56;10.44;99.99
67868;SHT31;54672;46.096;14.470;2022-09-29T16:30:24;10.40;99.99
67868;SHT31;54672;46.096;14.470;2022-09-29T16:32:55;10.38;99.99
67868;SHT31;54672;46.096;14.470;2022-09-29T16:40:51;10.41;99.99
67868;SHT31;54672;46.096;14.470;2022-09-29T16:43:43;10.43;99.99
67868;SHT31;54672;46.096;14.470;2022-09-29T16:46:15;10.50;99.99
67868;SHT31;54672;46.096;14.470;2022-09-29T16:48:43;10.54;99.99
67868;SHT31;54672;46.096;14.470;2022-09-29T16:51:15;10.57;99.99
67868;SHT31;54672;46.096;14.470;2022-09-29T16:53:40;10.61;99.99
67868;SHT31;54672;46.096;14.470;2022-09-29T16:56:09;10.65;99.99
67868;SHT31;54672;46.096;14.470;2022-09-29T16:58:43;10.71;99.99
67868;SHT31;54672;46.096;14.470;2022-09-29T17:01:10;10.68;99.99
67868;SHT31;54672;46.096;14.470;2022-09-29T17:03:38;10.61;99.99
67868;SHT31;54672;46.096;14.470;2022-09-29T17:06:03;10.54;99.99
67868;SHT31;54672;46.096;14.470;2022-09-29T17:08:31;10.54;99.99
67868;SHT31;54672;46.096;14.470;2022-09-29T17:10:59;10.61;99.99
67868;SHT31;54672;46.096;14.470;2022-09-29T17:13:27;10.69;99.99
67868;SHT31;54672;46.096;14.470;2022-09-29T17:15:55;10.71;99.99
67868;SHT31;54672;46.096;14.470;2022-09-29T17:18:21;10.77;99.99
67868;SHT31;54672;46.096;14.470;2022-09-29T17:20:49;10.79;99.99
67868;SHT31;54672;46.096;14.470;2022-09-29T17:23:15;10.82;99.99
67868;SHT31;54672;46.096;14.470;2022-09-29T17:25:44;10.81;99.99
67868;SHT31;54672;46.096;14.470;2022-09-29T17:28:15;10.77;99.99
67868;SHT31;54672;46.096;14.470;2022-09-29T17:30:43;10.78;99.99
67868;SHT31;54672;46.096;14.470;2022-09-29T17:33:11;10.68;99.99
67868;SHT31;54672;46.096;14.470;2022-09-29T17:35:39;10.71;99.99
67868;SHT31;54672;46.096;14.470;2022-09-29T17:38:05;10.67;99.99
67868;SHT31;54672;46.096;14.470;2022-09-29T17:40:37;10.67;99.99
67868;SHT31;54672;46.096;14.470;2022-09-29T17:43:08;10.54;99.99
67868;SHT31;54672;46.096;14.470;2022-09-29T17:45:34;10.54;99.99
67868;SHT31;54672;46.096;14.470;2022-09-29T17:48:00;10.57;99.99
67868;SHT31;54672;46.096;14.470;2022-09-29T17:50:29;10.54;99.99
67868;SHT31;54672;46.096;14.470;2022-09-29T17:52:56;10.55;99.99
67868;SHT31;54672;46.096;14.470;2022-09-29T17:55:23;10.58;99.99
67868;SHT31;54672;46.096;14.470;2022-09-29T17:57:49;10.65;99.99
67868;SHT31;54672;46.096;14.470;2022-09-29T18:00:34;10.64;99.99
67868;SHT31;54672;46.096;14.470;2022-09-29T18:03:12;10.71;99.99
67868;SHT31;54672;46.096;14.470;2022-09-29T18:05:39;10.71;99.99
67868;SHT31;54672;46.096;14.470;2022-09-29T18:08:06;10.72;99.99
67868;SHT31;54672;46.096;14.470;2022-09-29T18:10:40;10.65;99.99
67868;SHT31;54672;46.096;14.470;2022-09-29T18:13:06;10.67;99.99
67868;SHT31;54672;46.096;14.470;2022-09-29T18:15:34;10.64;99.99
67868;SHT31;54672;46.096;14.470;2022-09-29T18:18:02;10.69;99.99
67868;SHT31;54672;46.096;14.470;2022-09-29T18:20:30;10.64;99.99
67868;SHT31;54672;46.096;14.470;2022-09-29T18:22:57;10.74;99.99
67868;SHT31;54672;46.096;14.470;2022-09-29T18:25:27;10.79;99.99
67868;SHT31;54672;46.096;14.470;2022-09-29T18:27:53;10.82;99.99
67868;SHT31;54672;46.096;14.470;2022-09-29T18:30:22;10.86;99.99
67868;SHT31;54672;46.096;14.470;2022-09-29T18:32:50;10.89;99.99
67868;SHT31;54672;46.096;14.470;2022-09-29T18:35:21;10.85;99.99
67868;SHT31;54672;46.096;14.470;2022-09-29T18:37:47;10.77;99.99
67868;SHT31;54672;46.096;14.470;2022-09-29T18:40:13;10.78;99.99